Saint Cloud, MN (56393)

5:19 PM CDT on June 03, 2015 (GMT -0500)
Quail Meadows | | Change Station
CLOSE
Current Station
Personal Weather Station
Location: St Cloud, MN
Elevation: 1039 ft
Nearby Weather Stations

Elev 1039 ft 45.58 °N, 94.22 °W | Updated 11 minutes ago

Rain
Rain
64.0 °F
Feels Like 64.0 °F
N
2.2
Wind Variable Wind from ESE

Today
High -- | Low -- °F
--% Chance of Precip.
Yesterday
High -- | Low -- °F
Precip. -- in
5:30 AM 9:00 PM
Full, 98% visible
Pressure 29.86 in
Visibility 7.0 miles
Clouds Scattered Clouds 600 ft
Mostly Cloudy 1300 ft
Overcast 2500 ft
Dew Point 62 °F
Humidity 94%
Rainfall 1.15 in
Snow Depth Not available.
UV 1 out of 12
Pollen 2.30 out of 12
Air Quality Not available.
Flu Activity Sporadic
SPECI KSTC 032214Z 00000KT 7SM -RA SCT006 BKN013 OVC025 18/16 A2986 RMK AO2 P0000 T01780161

More Conditions Fewer Conditions

Pressure 29.86 in
Visibility 7.0 miles
Clouds Scattered Clouds 600 ft
Mostly Cloudy 1300 ft
Overcast 2500 ft
Dew Point 62 °F
Humidity 94%
Rainfall 1.15 in
Snow Depth Not available.
UV 1 out of 12
Pollen 2.30 out of 12
Air Quality Not available.
Flu Activity Sporadic
SPECI KSTC 032214Z 00000KT 7SM -RA SCT006 BKN013 OVC025 18/16 A2986 RMK AO2 P0000 T01780161

More Conditions Fewer Conditions

10-Day Weather Forecast

×

Almanac

Astronomy

Jun. 03, 2015 Rise Set
Actual Time
Civil Twilight
Nautical Twilight
Astronomical Twilight
Moon
Length of Visible Light
Length of Day
Tomorrow will be .
, % of the Moon is Illuminated

Today's Extremes

State Highs State Lows

Community

WunderPhotos

Upload Photos

1,826,291 photos uploaded!

WunderBlogs® & News

Nearby

Air Quality

  Air Quality AQ Index Pollutant
Not available.

Snow Depth

Station Depth Elevation

Earthquake Activity

City Distance Mag. Time & Date
Minimum magnitude displayed is 2.5.

Coastal Water Temperatures

Place Temperature

Stations

Nearby Weather Stations

Station Location Temp. Windchill Dew Point Humidity Wind Precip. Elev Updated Type